Mwanza, Tanzania

1:16 PM EAT on July 18, 2019 (GMT +0300)
Mwanza | | Change Station

Elev 3740 ft 2.47 °S, 32.92 °E | Updated 16 minutes ago

Clear
Clear
81 °F
Feels Like 80 °F
N
14
Wind Variable Wind from South

Today
High -- | Low -- °F
--% Chance of Precip.
Yesterday
High -- | Low -- °F
Precip. -- in
Pressure 30.06 in
Visibility 6.2 miles
Clouds Few 2800 ft
Heat Index 80 °F
Dew Point 55 °F
Humidity 42%
Rainfall 0.00 in
Snow Depth Not available.
6:54 AM 6:54 PM
Full, 98% visible
METAR HTMW 181000Z 17012KT 9999 FEW028 27/13 Q1018 NOSIG
Pressure 30.06 in
Visibility 6.2 miles
Clouds Few 2800 ft
Heat Index 80 °F
Dew Point 55 °F
Humidity 42%
Rainfall 0.00 in
Snow Depth Not available.
6:54 AM 6:54 PM
Full, 98% visible
METAR HTMW 181000Z 17012KT 9999 FEW028 27/13 Q1018 NOSIG

Get Severe Weather Alerts

Thanks for signing up!

Be on the lookout for a verification email in your inbox.

You'll start receiving the daily forecast at 6 AM.

×

10-Day Weather Forecast

No radar image for this location.
×

Almanac

Astronomy

Jul. 18, 2019 Rise Set
Actual Time
Civil Twilight
Nautical Twilight
Astronomical Twilight
Moon
Length of Visible Light
Length of Day
Tomorrow will be .
, % of the Moon is Illuminated

Today's Extremes

Country Highs Country Lows

Community

WunderPhotos

Category 6

Welcome to Category 6. This is the collective home for Weather Underground's featured writeups by Dr. Jeff Masters (right), Bob Henson (left), Chris Burt, and other regular contributors.

Nearby

Air Quality

  Air Quality AQ Index Pollutant
Not available.

Snow Depth

Station Depth Elevation

Earthquake Activity

City Distance Mag. Time & Date
Minimum magnitude displayed is 2.5.

Coastal Water Temperatures

Place Temperature

Stations

Nearby Weather Stations

Station Location Temp. Windchill Dew Point Humidity Wind Precip. Elev Updated Type